createdAt,value
2023-04-20T05:46:03.113Z,27.77
2023-04-20T05:48:48.612Z,27.05
2023-04-20T05:51:34.298Z,23.50
2023-04-20T05:54:20.472Z,29.67
2023-04-20T05:57:06.249Z,23.05
2023-04-20T05:59:51.773Z,21.87
2023-04-20T06:02:37.520Z,25.85
2023-04-20T06:05:23.270Z,23.05
2023-04-20T06:08:09.836Z,19.83
2023-04-20T06:10:59.297Z,20.85
2023-04-20T06:13:44.984Z,21.50
2023-04-20T06:16:30.584Z,28.55
2023-04-20T06:19:16.454Z,24.83
2023-04-20T06:22:09.062Z,19.50
2023-04-20T06:24:54.793Z,25.75
2023-04-20T06:27:40.001Z,27.27
2023-04-20T06:30:25.829Z,27.00
2023-04-20T06:33:17.065Z,28.40
2023-04-20T06:36:07.054Z,30.10
2023-04-20T06:38:52.491Z,24.48
2023-04-20T06:41:39.287Z,28.10
2023-04-20T06:44:24.997Z,28.87
2023-04-20T06:47:12.082Z,27.42
2023-04-20T06:50:04.214Z,25.88
2023-04-20T06:52:51.825Z,30.17
2023-04-20T06:55:38.900Z,17.27
2023-04-20T06:58:25.103Z,18.42
2023-04-20T07:01:11.070Z,21.75
2023-04-20T07:03:57.127Z,17.42
2023-04-20T07:06:42.711Z,16.20
2023-04-20T07:09:28.477Z,14.13
2023-04-20T07:12:15.848Z,12.73
2023-04-20T07:15:02.887Z,13.00
2023-04-20T07:17:48.393Z,20.42
2023-04-20T07:20:33.488Z,12.43
2023-04-20T07:23:21.578Z,15.65
2023-04-20T07:26:08.337Z,14.18
2023-04-20T07:28:54.728Z,12.75
2023-04-20T07:31:43.263Z,12.32
2023-04-20T07:34:29.905Z,13.40
2023-04-20T07:37:15.889Z,13.30
2023-04-20T07:40:09.925Z,15.65
2023-04-20T07:42:56.214Z,12.85
2023-04-20T07:45:42.060Z,12.85
2023-04-20T07:48:27.408Z,11.82
2023-04-20T07:51:13.301Z,16.80
2023-04-20T07:53:58.812Z,17.48
2023-04-20T07:56:44.040Z,14.93
2023-04-20T07:59:33.140Z,18.35
2023-04-20T08:02:18.943Z,13.52
2023-04-20T08:05:06.264Z,12.20
2023-04-20T08:07:51.527Z,14.38
2023-04-20T08:10:38.227Z,15.48
2023-04-20T08:13:23.614Z,18.08
2023-04-20T08:16:09.400Z,11.98
2023-04-20T08:18:55.037Z,13.57
2023-04-20T08:21:41.183Z,13.75
2023-04-20T08:24:26.867Z,17.17
2023-04-20T08:27:14.031Z,15.27
2023-04-20T08:29:59.500Z,12.98
2023-04-20T08:32:45.041Z,11.88
2023-04-20T08:35:30.685Z,11.50
2023-04-20T08:38:20.670Z,12.30
2023-04-20T08:41:08.902Z,12.88
2023-04-20T08:43:57.474Z,13.70
2023-04-20T08:46:47.711Z,11.70
2023-04-20T08:49:33.983Z,10.15
2023-04-20T08:52:19.741Z,13.75
2023-04-20T08:55:05.565Z,14.57
2023-04-20T08:57:51.334Z,12.35
2023-04-20T09:00:50.765Z,22.83
2023-04-20T09:03:39.004Z,9.90
2023-04-20T09:06:24.618Z,8.57
2023-04-20T09:09:12.301Z,11.82
2023-04-20T09:12:02.951Z,9.23
2023-04-20T09:14:48.882Z,10.35
2023-04-20T09:17:36.266Z,10.77
2023-04-20T09:20:34.160Z,12.00
2023-04-20T09:23:21.704Z,10.35
2023-04-20T09:26:18.066Z,10.05
2023-04-20T09:29:04.084Z,12.25
2023-04-20T09:31:50.442Z,10.02
2023-04-20T09:34:45.339Z,9.57
2023-04-20T09:37:31.768Z,8.88
2023-04-20T09:40:18.311Z,8.48
2023-04-20T09:43:19.921Z,8.90
2023-04-20T09:46:06.371Z,9.20
2023-04-20T09:48:52.249Z,7.15
2023-04-20T09:51:45.144Z,15.20
2023-04-20T09:54:31.923Z,9.30
2023-04-20T09:57:19.410Z,12.48
2023-04-20T10:00:10.910Z,12.48
2023-04-20T10:02:57.556Z,7.60
2023-04-20T10:05:43.591Z,9.55
2023-04-20T10:08:41.478Z,6.82
2023-04-20T10:11:49.033Z,10.48
2023-04-20T10:14:38.861Z,8.07
2023-04-20T10:17:31.754Z,7.30
2023-04-20T10:20:27.555Z,7.22
2023-04-20T10:23:21.265Z,9.20
2023-04-20T10:26:08.241Z,8.75
2023-04-20T10:28:53.468Z,10.45
2023-04-20T10:31:40.752Z,8.35
2023-04-20T10:34:33.834Z,15.68
2023-04-20T10:40:08.123Z,10.15
2023-04-20T10:42:53.967Z,11.68
2023-04-20T10:45:40.444Z,9.35
2023-04-20T10:48:26.560Z,8.82
2023-04-20T10:51:11.936Z,14.87
2023-04-20T10:54:06.757Z,10.45
2023-04-20T10:56:53.160Z,9.73
2023-04-20T10:59:39.143Z,9.25
2023-04-20T11:02:24.556Z,15.18
2023-04-20T11:05:15.094Z,12.52
2023-04-20T11:08:01.505Z,12.00
2023-04-20T11:10:47.129Z,11.57
2023-04-20T11:13:33.042Z,11.35
2023-04-20T11:16:19.549Z,10.30
2023-04-20T11:19:06.219Z,10.15
2023-04-20T11:21:54.882Z,8.23
2023-04-20T11:24:46.657Z,13.18
2023-04-20T11:27:34.067Z,16.17
2023-04-20T11:30:19.750Z,15.68
